South Ryegate, VT (05069)

10:39 AM EST on January 31, 2015 (GMT -0500)
Barnet School | Change Station
CLOSE
Current Station
Personal Weather Station
Location: Barnet, VT
Elevation: 728 ft
Nearby Weather Stations
Active Advisory: Wind Chill Advisory Active Notice: Public Information Statement

Elev 728 ft 44.31 °N, 72.08 °W | Updated 3 minutes ago

Clear
Clear
4.0 °F
Feels Like 4 °F
N
2.0
Wind Variable Wind from SSE
Gusts 2.0 mph

Today
High -- | Low -- °F
--% Chance of Precip.
Yesterday
High -- | Low -- °F
Precip. -- in
7:07 AM 4:56 PM
Waxing Gibbous, 90% visible
Pressure 30.17 in
Visibility 10.0 miles
Clouds Clear
Windchill 4 °F
Dew Point -6 °F
Humidity 62%
Rainfall 0.00 in
Snow Depth Not available.
UV 2 out of 12
Pollen .10 out of 12
Air Quality Not available.
Flu Activity Not available.
METAR KMPV 311451Z AUTO 33012G20KT 10SM CLR M21/M26 A3006 RMK AO2 SLP214 T12061256 50002

More Conditions Fewer Conditions

Pressure 30.17 in
Visibility 10.0 miles
Clouds Clear
Windchill 4 °F
Dew Point -6 °F
Humidity 62%
Rainfall 0.00 in
Snow Depth Not available.
UV 2 out of 12
Pollen .10 out of 12
Air Quality Not available.
Flu Activity Not available.
METAR KMPV 311451Z AUTO 33012G20KT 10SM CLR M21/M26 A3006 RMK AO2 SLP214 T12061256 50002

More Conditions Fewer Conditions

10-Day Weather Forecast

Almanac

Astronomy

Jan. 31, 2015 Rise Set
Actual Time
Civil Twilight
Nautical Twilight
Astronomical Twilight
Moon
Length of Visible Light
Length of Day
Tomorrow will be .
, % of the Moon is Illuminated

Today's Extremes

State Highs State Lows

Community

WunderPhotos

Upload Photos

1,792,094 photos uploaded!

WunderBlogs® & News

Nearby

Air Quality

  Air Quality AQ Index Pollutant
Not available.

Snow Depth

Station Depth Elevation

Earthquake Activity

City Distance Mag. Time & Date
Minimum magnitude displayed is 2.5.

Coastal Water Temperatures

Place Temperature

Nearby Weather Stations